createdAt,value
2022-08-26T00:02:04.377Z,11.57
2022-08-26T00:04:51.692Z,15.05
2022-08-26T00:07:39.045Z,15.02
2022-08-26T00:10:26.420Z,12.82
2022-08-26T00:13:14.708Z,12.52
2022-08-26T00:16:02.752Z,10.57
2022-08-26T00:18:53.254Z,13.00
2022-08-26T00:21:40.538Z,10.52
2022-08-26T00:24:28.239Z,14.70
2022-08-26T00:27:15.556Z,11.73
2022-08-26T00:30:08.583Z,13.07
2022-08-26T00:32:56.938Z,9.93
2022-08-26T00:35:45.337Z,14.75
2022-08-26T00:38:33.370Z,12.90
2022-08-26T00:41:20.702Z,11.13
2022-08-26T00:44:10.528Z,11.75
2022-08-26T00:47:02.823Z,11.43
2022-08-26T00:49:51.872Z,8.88
2022-08-26T00:52:41.338Z,11.52
2022-08-26T00:55:41.254Z,9.80
2022-08-26T00:58:32.167Z,12.65
2022-08-26T01:01:19.687Z,13.60
2022-08-26T01:04:13.739Z,10.07
2022-08-26T01:07:02.289Z,14.23
2022-08-26T01:09:49.868Z,11.43
2022-08-26T01:12:45.201Z,11.73
2022-08-26T01:15:41.891Z,11.15
2022-08-26T01:18:30.304Z,13.85
2022-08-26T01:21:40.749Z,12.50
2022-08-26T01:24:30.406Z,14.32
2022-08-26T01:27:20.833Z,14.05
2022-08-26T01:30:08.772Z,18.17
2022-08-26T01:32:59.527Z,17.00
2022-08-26T01:35:47.783Z,18.73
2022-08-26T01:38:36.087Z,10.38
2022-08-26T01:41:27.440Z,13.02
2022-08-26T01:44:21.525Z,14.80
2022-08-26T01:47:09.948Z,10.43
2022-08-26T01:50:00.080Z,16.98
2022-08-26T01:52:54.260Z,10.35
2022-08-26T01:55:45.458Z,13.52
2022-08-26T01:58:39.248Z,9.27
2022-08-26T02:01:28.956Z,17.40
2022-08-26T02:04:29.644Z,12.55
2022-08-26T02:07:19.846Z,11.43
2022-08-26T02:10:09.308Z,15.77
2022-08-26T02:12:56.689Z,13.43
2022-08-26T02:15:45.883Z,15.10
2022-08-26T02:18:37.418Z,12.88
2022-08-26T02:21:24.939Z,14.57
2022-08-26T02:24:19.941Z,13.68
2022-08-26T02:27:07.412Z,12.75
2022-08-26T02:30:04.992Z,12.15
2022-08-26T02:32:53.325Z,13.98
2022-08-26T02:35:40.840Z,9.82
2022-08-26T02:38:29.599Z,13.40
2022-08-26T02:41:17.741Z,12.95
2022-08-26T02:44:07.353Z,14.40
2022-08-26T02:46:55.030Z,12.32
2022-08-26T02:49:47.219Z,8.82
2022-08-26T02:52:35.030Z,14.52
2022-08-26T02:55:22.295Z,14.18
2022-08-26T02:58:12.058Z,14.70
2022-08-26T03:00:59.751Z,13.45
2022-08-26T03:03:49.101Z,13.18
2022-08-26T03:06:37.597Z,11.77
2022-08-26T03:09:25.410Z,10.55
2022-08-26T03:12:13.267Z,11.15
2022-08-26T03:15:01.412Z,10.00
2022-08-26T03:17:50.266Z,16.25
2022-08-26T03:20:37.788Z,15.88
2022-08-26T03:23:25.795Z,11.98
2022-08-26T03:26:15.474Z,12.85
2022-08-26T03:29:22.648Z,14.98
2022-08-26T03:32:09.945Z,10.57
2022-08-26T03:34:58.167Z,11.52
2022-08-26T03:37:45.463Z,10.35
2022-08-26T03:40:36.759Z,15.45
2022-08-26T03:43:26.927Z,19.67
2022-08-26T03:46:15.034Z,18.80
2022-08-26T03:49:05.459Z,20.50
2022-08-26T03:51:52.638Z,16.27
2022-08-26T03:54:41.189Z,20.95
2022-08-26T03:57:31.474Z,18.98
2022-08-26T04:00:19.965Z,20.38
2022-08-26T04:03:10.050Z,22.10
2022-08-26T04:05:57.698Z,18.15
2022-08-26T04:08:45.384Z,12.38
2022-08-26T04:11:35.899Z,21.45
2022-08-26T04:14:27.830Z,22.50
2022-08-26T04:17:15.894Z,20.25
2022-08-26T04:20:06.502Z,21.25
2022-08-26T04:22:54.013Z,17.60
2022-08-26T04:25:41.263Z,15.32
2022-08-26T04:28:29.875Z,15.68
2022-08-26T04:31:18.836Z,13.20
2022-08-26T04:34:07.229Z,18.08
2022-08-26T04:36:56.201Z,16.25
2022-08-26T04:39:43.439Z,13.57
2022-08-26T04:42:33.608Z,16.92
2022-08-26T04:45:22.804Z,18.88
2022-08-26T04:48:11.065Z,14.85
2022-08-26T04:51:00.167Z,12.95
2022-08-26T04:53:47.413Z,15.00
2022-08-26T04:56:37.653Z,18.38
2022-08-26T04:59:25.279Z,13.65
2022-08-26T05:02:12.508Z,12.40
2022-08-26T05:04:59.730Z,15.82
2022-08-26T05:07:47.009Z,13.82
2022-08-26T05:10:46.923Z,9.75
2022-08-26T05:13:35.223Z,8.93
2022-08-26T05:16:22.664Z,13.45
2022-08-26T05:19:10.277Z,14.98
2022-08-26T05:22:01.259Z,10.13
2022-08-26T05:24:48.918Z,17.50
2022-08-26T05:27:36.422Z,18.83
2022-08-26T05:30:24.548Z,11.38
2022-08-26T05:33:12.379Z,11.68
2022-08-26T05:36:07.784Z,13.50
2022-08-26T05:38:57.917Z,11.10
2022-08-26T05:41:45.340Z,13.55
2022-08-26T05:44:55.591Z,9.55
2022-08-26T05:47:43.392Z,12.02
2022-08-26T05:50:30.595Z,8.20
2022-08-26T05:53:21.481Z,11.73
2022-08-26T05:56:10.817Z,10.23
2022-08-26T05:58:59.634Z,10.13
2022-08-26T06:01:47.089Z,7.85
2022-08-26T06:04:35.515Z,12.63
2022-08-26T06:07:43.578Z,12.23
2022-08-26T06:10:33.112Z,10.35
2022-08-26T06:13:24.308Z,8.07
2022-08-26T06:16:15.403Z,11.00
2022-08-26T06:19:11.178Z,13.82
2022-08-26T06:22:23.307Z,12.48
2022-08-26T06:25:29.649Z,8.52
2022-08-26T06:28:17.530Z,9.25
2022-08-26T06:31:06.394Z,6.43
2022-08-26T06:33:54.283Z,10.63
2022-08-26T06:36:44.017Z,11.45
2022-08-26T06:39:32.047Z,10.93
2022-08-26T06:42:19.496Z,10.43
2022-08-26T06:45:07.319Z,10.13
2022-08-26T06:47:54.792Z,10.05
2022-08-26T06:50:42.899Z,7.70
2022-08-26T06:53:30.137Z,11.88
2022-08-26T06:56:21.060Z,8.70
2022-08-26T06:59:12.613Z,8.38
2022-08-26T07:01:59.911Z,9.25
2022-08-26T07:04:51.104Z,10.65
2022-08-26T07:07:40.973Z,6.97
2022-08-26T07:10:33.047Z,8.30
2022-08-26T07:13:30.871Z,8.80
2022-08-26T07:16:18.613Z,8.75
2022-08-26T07:19:11.206Z,9.15
2022-08-26T07:22:04.346Z,8.57
2022-08-26T07:24:54.093Z,7.38
2022-08-26T07:27:44.026Z,12.27
2022-08-26T07:30:31.585Z,10.18
2022-08-26T07:33:22.286Z,11.90
2022-08-26T07:36:11.717Z,10.38
2022-08-26T07:38:59.321Z,9.60
2022-08-26T07:41:48.569Z,6.82
2022-08-26T07:44:38.266Z,9.60
2022-08-26T07:47:28.609Z,7.13
2022-08-26T07:50:18.605Z,9.15
2022-08-26T07:53:15.655Z,7.90
2022-08-26T07:56:05.566Z,5.65
2022-08-26T07:58:53.484Z,6.60
2022-08-26T08:01:44.749Z,9.95
2022-08-26T08:04:35.703Z,8.93
2022-08-26T08:07:38.647Z,9.52
2022-08-26T08:10:31.957Z,16.88
2022-08-26T08:13:23.071Z,13.60
2022-08-26T08:16:12.770Z,8.10
2022-08-26T08:19:00.368Z,6.85
2022-08-26T08:21:47.651Z,8.65
2022-08-26T08:24:35.309Z,11.07
2022-08-26T08:27:24.134Z,8.13
2022-08-26T08:30:13.643Z,7.25
2022-08-26T08:33:01.978Z,11.55
2022-08-26T08:35:49.833Z,9.40
2022-08-26T08:38:37.414Z,7.63
2022-08-26T08:41:43.707Z,7.68
2022-08-26T08:44:33.769Z,10.23
2022-08-26T08:47:36.175Z,9.55
2022-08-26T08:50:51.240Z,9.52
2022-08-26T08:53:42.123Z,7.80
2022-08-26T08:56:57.658Z,10.82
2022-08-26T09:00:02.666Z,21.30
2022-08-26T09:02:58.578Z,8.48
2022-08-26T09:05:51.603Z,7.63
2022-08-26T09:08:41.846Z,9.35
2022-08-26T09:11:29.470Z,7.85
2022-08-26T09:14:18.069Z,7.82
2022-08-26T09:17:16.127Z,7.63
2022-08-26T09:20:27.659Z,7.13
2022-08-26T09:23:19.425Z,7.18
2022-08-26T09:26:26.010Z,12.00
2022-08-26T09:29:22.424Z,7.85
2022-08-26T09:32:21.343Z,11.80
2022-08-26T09:35:35.838Z,7.30
2022-08-26T09:38:33.258Z,5.95
2022-08-26T09:41:32.947Z,9.60
2022-08-26T09:44:21.754Z,9.07
2022-08-26T09:47:09.942Z,10.38
2022-08-26T09:49:59.452Z,6.05
2022-08-26T09:52:46.736Z,7.57
2022-08-26T09:55:35.951Z,10.55
2022-08-26T09:58:37.818Z,12.60
2022-08-26T10:01:30.918Z,20.50
2022-08-26T10:04:24.917Z,6.97
2022-08-26T10:07:14.161Z,8.80
2022-08-26T10:10:09.423Z,7.65
2022-08-26T10:13:12.675Z,9.48
2022-08-26T10:16:00.234Z,6.95
2022-08-26T10:19:07.980Z,5.35
2022-08-26T10:22:07.924Z,6.18
2022-08-26T10:25:03.836Z,7.72
2022-08-26T10:28:03.694Z,7.25
2022-08-26T10:30:57.255Z,5.78
2022-08-26T10:33:44.626Z,8.18
2022-08-26T10:37:13.773Z,8.50
2022-08-26T10:40:07.643Z,7.55
2022-08-26T10:43:10.985Z,6.45
2022-08-26T10:46:08.972Z,9.98
2022-08-26T10:49:03.198Z,6.30
2022-08-26T10:52:03.961Z,5.90
2022-08-26T10:55:20.461Z,9.65
2022-08-26T10:58:30.692Z,7.85
2022-08-26T11:01:44.284Z,4.95
2022-08-26T11:04:37.822Z,6.03
2022-08-26T11:07:31.888Z,12.93
2022-08-26T11:10:19.145Z,6.07
2022-08-26T11:13:08.324Z,7.18
2022-08-26T11:16:01.323Z,6.57
2022-08-26T11:19:00.137Z,8.95
2022-08-26T11:22:05.646Z,7.13
2022-08-26T11:24:52.911Z,6.40
2022-08-26T11:27:40.332Z,8.77
2022-08-26T11:30:46.131Z,8.82
2022-08-26T11:33:54.128Z,7.05
2022-08-26T11:36:56.211Z,7.32
2022-08-26T11:39:55.194Z,9.18
2022-08-26T11:42:49.401Z,9.48
2022-08-26T11:46:00.514Z,9.70
2022-08-26T11:48:48.637Z,9.07
2022-08-26T11:51:40.405Z,6.93
2022-08-26T11:54:35.693Z,8.02
2022-08-26T11:57:23.493Z,7.22
2022-08-26T12:00:21.096Z,6.90
2022-08-26T12:03:17.904Z,5.75
2022-08-26T12:06:17.694Z,8.18
2022-08-26T12:09:12.993Z,5.85
2022-08-26T12:12:10.667Z,6.05
2022-08-26T12:15:05.639Z,4.43
2022-08-26T12:17:54.453Z,10.60
2022-08-26T12:20:48.642Z,7.03
2022-08-26T12:23:36.495Z,10.77
2022-08-26T12:26:34.890Z,7.47
2022-08-26T12:29:28.375Z,6.38
2022-08-26T12:32:18.484Z,6.88
2022-08-26T12:35:10.150Z,9.07
2022-08-26T12:37:58.926Z,7.53
2022-08-26T12:40:48.155Z,8.85
2022-08-26T12:43:44.395Z,6.43
2022-08-26T12:46:32.012Z,9.90
2022-08-26T12:49:19.345Z,5.53
2022-08-26T12:52:09.860Z,8.45
2022-08-26T12:55:18.583Z,7.10
2022-08-26T12:58:31.882Z,4.72
2022-08-26T13:01:25.294Z,5.33
2022-08-26T13:04:40.591Z,6.35
2022-08-26T13:07:27.899Z,6.43
2022-08-26T13:10:38.218Z,8.98
2022-08-26T13:13:25.489Z,7.63
2022-08-26T13:16:16.255Z,5.55
2022-08-26T13:19:13.428Z,5.75
2022-08-26T13:22:01.139Z,5.65
2022-08-26T13:24:48.520Z,7.88
2022-08-26T13:27:35.956Z,6.57
2022-08-26T13:30:24.649Z,6.00
2022-08-26T13:33:14.635Z,6.47
2022-08-26T13:36:02.073Z,6.28
2022-08-26T13:38:52.065Z,4.38
2022-08-26T13:41:40.717Z,11.20
2022-08-26T13:44:28.406Z,5.90
2022-08-26T13:47:16.975Z,6.47
2022-08-26T13:50:05.833Z,6.32
2022-08-26T13:52:53.857Z,4.50
2022-08-26T13:55:43.445Z,5.45
2022-08-26T13:58:31.127Z,5.53
2022-08-26T14:01:18.628Z,6.82
2022-08-26T14:04:06.652Z,5.32
2022-08-26T14:06:54.079Z,4.22
2022-08-26T14:09:41.678Z,8.40
2022-08-26T14:12:29.819Z,5.63
2022-08-26T14:15:18.883Z,5.18
2022-08-26T14:18:09.197Z,5.00
2022-08-26T14:20:57.650Z,6.88
2022-08-26T14:23:45.032Z,10.63
2022-08-26T14:26:32.931Z,7.00
2022-08-26T14:29:20.216Z,3.80
2022-08-26T14:32:13.710Z,6.55
2022-08-26T14:35:01.945Z,6.60
2022-08-26T14:37:49.565Z,6.05
2022-08-26T14:40:38.406Z,5.97
2022-08-26T14:43:26.417Z,6.20
2022-08-26T14:46:15.682Z,5.65
2022-08-26T14:49:06.198Z,5.32
2022-08-26T14:51:56.675Z,5.28
2022-08-26T14:54:44.668Z,6.47
2022-08-26T14:57:32.069Z,9.00
2022-08-26T15:00:19.570Z,6.35
2022-08-26T15:03:07.048Z,5.07
2022-08-26T15:05:55.014Z,9.20
2022-08-26T15:08:42.546Z,5.03
2022-08-26T15:11:30.002Z,6.47
2022-08-26T15:14:19.327Z,6.25
2022-08-26T15:17:07.636Z,6.45
2022-08-26T15:19:54.963Z,3.70
2022-08-26T15:22:43.400Z,8.25
2022-08-26T15:25:31.369Z,3.88
2022-08-26T15:28:18.764Z,5.38
2022-08-26T15:31:07.296Z,4.13
2022-08-26T15:33:56.674Z,3.60
2022-08-26T15:36:46.183Z,7.70
2022-08-26T15:39:34.327Z,5.38
2022-08-26T15:42:21.672Z,4.68
2022-08-26T15:45:09.279Z,3.88
2022-08-26T15:48:01.396Z,4.13
2022-08-26T15:50:51.752Z,6.38
2022-08-26T15:53:39.102Z,6.75
2022-08-26T15:56:28.046Z,4.85
2022-08-26T15:59:15.977Z,6.28
2022-08-26T16:02:03.374Z,5.18
2022-08-26T16:04:50.673Z,6.43
2022-08-26T16:07:38.244Z,4.38
2022-08-26T16:10:25.637Z,3.35
2022-08-26T16:13:14.813Z,3.88
2022-08-26T16:16:03.347Z,3.50
2022-08-26T16:18:51.877Z,4.78
2022-08-26T16:21:40.668Z,6.10
2022-08-26T16:24:30.494Z,4.28
2022-08-26T16:27:18.092Z,4.57
2022-08-26T16:30:06.929Z,9.82
2022-08-26T16:32:55.769Z,4.25
2022-08-26T16:35:44.788Z,5.57
2022-08-26T16:38:32.248Z,7.00
2022-08-26T16:41:19.808Z,5.32
2022-08-26T16:44:07.994Z,8.85
2022-08-26T16:46:58.462Z,4.43
2022-08-26T16:49:47.029Z,5.63
2022-08-26T16:52:34.435Z,5.43
2022-08-26T16:55:23.431Z,7.65
2022-08-26T16:58:10.953Z,5.70
2022-08-26T17:00:59.265Z,5.20
2022-08-26T17:03:46.672Z,8.95
2022-08-26T17:06:34.358Z,6.88
2022-08-26T17:09:22.029Z,5.50
2022-08-26T17:12:11.302Z,5.03
2022-08-26T17:14:58.604Z,4.45
2022-08-26T17:17:46.017Z,8.15
2022-08-26T17:20:33.842Z,7.30
2022-08-26T17:23:22.451Z,8.60
2022-08-26T17:26:12.314Z,6.38
2022-08-26T17:29:00.192Z,5.78
2022-08-26T17:31:47.638Z,4.88
2022-08-26T17:34:34.867Z,6.60
2022-08-26T17:37:22.193Z,6.43
2022-08-26T17:40:13.823Z,5.05
2022-08-26T17:43:01.171Z,5.93
2022-08-26T17:45:48.531Z,6.75
2022-08-26T17:48:37.844Z,3.63
2022-08-26T17:51:25.293Z,5.45
2022-08-26T17:54:13.045Z,5.65
2022-08-26T17:57:00.639Z,5.20
2022-08-26T17:59:48.245Z,6.18
2022-08-26T18:02:39.703Z,6.85
2022-08-26T18:05:29.132Z,5.60
2022-08-26T18:08:16.585Z,4.85
2022-08-26T18:11:08.149Z,5.82
2022-08-26T18:13:59.067Z,3.55
2022-08-26T18:16:50.468Z,5.53
2022-08-26T18:19:38.878Z,8.60
2022-08-26T18:22:27.447Z,5.80
2022-08-26T18:25:18.987Z,6.18
2022-08-26T18:28:06.389Z,7.05
2022-08-26T18:30:54.001Z,9.52
2022-08-26T18:33:45.189Z,10.68
2022-08-26T18:36:37.478Z,12.27
2022-08-26T18:39:24.715Z,11.43
2022-08-26T18:42:11.971Z,13.25
2022-08-26T18:44:59.226Z,14.75
2022-08-26T18:47:46.419Z,8.90
2022-08-26T18:50:33.804Z,13.77
2022-08-26T18:53:21.394Z,11.73
2022-08-26T18:56:08.647Z,11.45
2022-08-26T18:58:55.918Z,14.40
2022-08-26T19:01:43.373Z,13.68
2022-08-26T19:04:30.663Z,10.15
2022-08-26T19:07:19.436Z,7.07
2022-08-26T19:10:07.211Z,7.88
2022-08-26T19:13:00.078Z,7.55
2022-08-26T19:15:48.012Z,6.25
2022-08-26T19:18:35.292Z,4.85
2022-08-26T19:21:24.064Z,6.50
2022-08-26T19:24:17.554Z,5.72
2022-08-26T19:27:05.568Z,8.32
2022-08-26T19:29:52.793Z,6.13
2022-08-26T19:32:40.103Z,4.85
2022-08-26T19:35:27.392Z,5.15
2022-08-26T19:38:15.573Z,6.95
2022-08-26T19:41:02.768Z,4.50
2022-08-26T19:43:50.060Z,4.97
2022-08-26T19:49:31.879Z,5.85
2022-08-26T19:52:19.227Z,5.10
2022-08-26T19:55:07.692Z,4.30
2022-08-26T19:57:55.003Z,3.88
2022-08-26T20:00:43.058Z,6.70
2022-08-26T20:03:30.838Z,4.15
2022-08-26T20:06:18.392Z,5.22
2022-08-26T20:09:05.619Z,4.35
2022-08-26T20:11:54.109Z,4.63
2022-08-26T20:14:44.542Z,3.80
2022-08-26T20:17:33.228Z,6.88
2022-08-26T20:20:39.362Z,7.50
2022-08-26T20:23:27.050Z,3.75
2022-08-26T20:26:14.594Z,3.97
2022-08-26T20:29:02.792Z,7.55
2022-08-26T20:31:51.248Z,4.82
2022-08-26T20:34:40.419Z,3.78
2022-08-26T20:37:29.662Z,5.57
2022-08-26T20:40:17.792Z,5.25
2022-08-26T20:43:06.822Z,6.20
2022-08-26T20:45:54.705Z,6.20
2022-08-26T20:48:42.794Z,11.40
2022-08-26T20:51:30.934Z,4.03
2022-08-26T20:54:26.200Z,3.25
2022-08-26T20:57:15.754Z,5.93
2022-08-26T21:00:05.872Z,5.50
2022-08-26T21:02:53.840Z,5.10
2022-08-26T21:05:42.448Z,4.97
2022-08-26T21:08:33.153Z,3.63
2022-08-26T21:11:21.659Z,3.55
2022-08-26T21:14:16.091Z,3.95
2022-08-26T21:17:05.076Z,4.15
2022-08-26T21:19:53.002Z,3.90
2022-08-26T21:22:40.496Z,5.22
2022-08-26T21:25:27.937Z,5.60
2022-08-26T21:28:19.451Z,3.83
2022-08-26T21:31:08.767Z,4.70
2022-08-26T21:33:56.441Z,6.13
2022-08-26T21:36:44.324Z,5.03
2022-08-26T21:39:31.607Z,7.80
2022-08-26T21:42:18.927Z,4.00
2022-08-26T21:45:07.283Z,5.00
2022-08-26T21:47:54.781Z,6.05
2022-08-26T21:50:43.194Z,5.53
2022-08-26T21:53:30.522Z,4.38
2022-08-26T21:56:19.419Z,3.13
2022-08-26T21:59:07.594Z,3.05
2022-08-26T22:01:55.000Z,5.35
2022-08-26T22:04:46.840Z,7.18
2022-08-26T22:07:36.269Z,4.65
2022-08-26T22:10:23.670Z,4.82
2022-08-26T22:13:11.440Z,8.20
2022-08-26T22:16:03.001Z,6.85
2022-08-26T22:18:50.597Z,4.43
2022-08-26T22:21:38.405Z,5.70
2022-08-26T22:24:27.376Z,5.18
2022-08-26T22:27:15.040Z,8.68
2022-08-26T22:30:02.360Z,4.63
2022-08-26T22:32:49.700Z,4.45
2022-08-26T22:35:42.225Z,5.25
2022-08-26T22:38:29.758Z,5.80
2022-08-26T22:41:18.502Z,5.70
2022-08-26T22:44:05.959Z,8.05
2022-08-26T22:46:57.150Z,5.35
2022-08-26T22:49:47.000Z,6.22
2022-08-26T22:52:34.252Z,5.45
2022-08-26T22:55:21.568Z,4.68
2022-08-26T22:58:09.562Z,6.78
2022-08-26T23:00:57.923Z,6.60
2022-08-26T23:03:46.758Z,7.15
2022-08-26T23:06:39.584Z,6.07
2022-08-26T23:09:26.874Z,5.13
2022-08-26T23:12:14.406Z,5.57
2022-08-26T23:15:01.714Z,5.47
2022-08-26T23:17:53.588Z,5.53
2022-08-26T23:20:47.154Z,7.53
2022-08-26T23:23:35.772Z,4.25
2022-08-26T23:26:23.106Z,8.27
2022-08-26T23:29:12.719Z,6.93
2022-08-26T23:32:00.520Z,4.05
2022-08-26T23:34:57.019Z,7.47
2022-08-26T23:37:46.156Z,6.15
2022-08-26T23:40:37.937Z,5.05
2022-08-26T23:43:25.263Z,7.90
2022-08-26T23:46:15.001Z,4.90
2022-08-26T23:49:02.544Z,5.30
2022-08-26T23:52:08.447Z,6.38
2022-08-26T23:54:56.011Z,3.58
2022-08-26T23:57:43.389Z,4.82
